createdAt,value
2019-04-29T00:02:10.495Z,8.20
2019-04-29T00:04:39.282Z,8.00
2019-04-29T00:07:08.209Z,8.00
2019-04-29T00:09:37.045Z,8.10
2019-04-29T00:12:05.975Z,8.00
2019-04-29T00:14:35.454Z,8.00
2019-04-29T00:17:24.106Z,7.90
2019-04-29T00:19:54.585Z,7.90
2019-04-29T00:22:23.435Z,7.90
2019-04-29T00:24:52.282Z,7.80
2019-04-29T00:27:21.071Z,7.80
2019-04-29T00:29:49.938Z,7.60
2019-04-29T00:32:18.749Z,7.70
2019-04-29T00:34:47.580Z,7.60
2019-04-29T00:37:20.983Z,7.50
2019-04-29T00:39:57.103Z,7.30
2019-04-29T00:42:36.311Z,7.30
2019-04-29T00:45:07.286Z,7.40
2019-04-29T00:47:36.314Z,7.30
2019-04-29T00:50:07.691Z,7.40
2019-04-29T00:52:36.706Z,7.50
2019-04-29T00:55:10.828Z,7.30
2019-04-29T00:57:40.385Z,7.30
2019-04-29T01:00:09.676Z,7.40
2019-04-29T01:02:38.476Z,7.30
2019-04-29T01:05:07.433Z,7.20
2019-04-29T01:07:38.019Z,7.20
2019-04-29T01:10:07.061Z,7.20
2019-04-29T01:12:36.977Z,7.30
2019-04-29T01:15:06.557Z,7.40
2019-04-29T01:17:35.377Z,7.30
2019-04-29T01:20:06.245Z,7.40
2019-04-29T01:22:35.475Z,7.30
2019-04-29T01:25:05.770Z,7.20
2019-04-29T01:27:57.222Z,7.20
2019-04-29T01:30:43.621Z,7.30
2019-04-29T01:33:12.516Z,7.20
2019-04-29T01:35:41.526Z,7.30
2019-04-29T01:38:10.320Z,7.10
2019-04-29T01:40:41.398Z,7.10
2019-04-29T01:43:10.261Z,7.10
2019-04-29T01:45:39.017Z,7.10
2019-04-29T01:48:07.827Z,7.10
2019-04-29T01:50:37.866Z,6.90
2019-04-29T01:53:06.814Z,6.90
2019-04-29T01:55:35.641Z,6.90
2019-04-29T01:58:04.550Z,6.90
2019-04-29T02:00:34.828Z,6.90
2019-04-29T02:03:03.714Z,6.70
2019-04-29T02:05:33.057Z,6.70
2019-04-29T02:08:01.926Z,6.70
2019-04-29T02:10:32.330Z,6.60
2019-04-29T02:13:01.468Z,6.70
2019-04-29T02:15:30.270Z,6.60
2019-04-29T02:17:59.218Z,6.60
2019-04-29T02:20:28.007Z,6.60
2019-04-29T02:23:04.020Z,6.70
2019-04-29T02:25:40.264Z,6.70
2019-04-29T02:28:10.787Z,6.70
2019-04-29T02:30:47.938Z,6.70
2019-04-29T02:33:16.812Z,6.70
2019-04-29T02:35:45.774Z,6.60
2019-04-29T02:38:19.033Z,6.70
2019-04-29T02:40:49.479Z,6.60
2019-04-29T02:43:22.303Z,6.70
2019-04-29T02:45:51.102Z,6.60
2019-04-29T02:48:19.968Z,6.60
2019-04-29T02:50:48.860Z,6.50
2019-04-29T02:53:17.651Z,6.40
2019-04-29T02:55:49.640Z,6.50
2019-04-29T02:58:21.417Z,6.40
2019-04-29T03:01:09.993Z,6.30
2019-04-29T03:03:49.513Z,6.20
2019-04-29T03:06:18.338Z,6.20
2019-04-29T03:08:47.204Z,6.20
2019-04-29T03:11:16.031Z,6.00
2019-04-29T03:13:44.850Z,5.80
2019-04-29T03:16:13.823Z,5.90
2019-04-29T03:18:46.982Z,6.00
2019-04-29T03:21:20.945Z,5.90
2019-04-29T03:23:49.796Z,5.90
2019-04-29T03:26:18.589Z,5.90
2019-04-29T03:28:47.435Z,5.90
2019-04-29T03:31:16.314Z,6.00
2019-04-29T03:33:45.155Z,6.00
2019-04-29T03:36:14.006Z,6.00
2019-04-29T03:38:42.869Z,6.10
2019-04-29T03:41:11.734Z,6.10
2019-04-29T03:43:40.586Z,6.10
2019-04-29T03:46:09.468Z,6.00
2019-04-29T03:48:38.366Z,5.90
2019-04-29T03:51:10.392Z,5.70
2019-04-29T03:53:39.321Z,5.70
2019-04-29T03:56:08.153Z,5.60
2019-04-29T03:58:37.008Z,5.60
2019-04-29T04:01:13.177Z,5.70
2019-04-29T04:03:43.556Z,5.60
2019-04-29T04:06:13.920Z,5.70
2019-04-29T04:08:44.469Z,5.60
2019-04-29T04:11:13.318Z,5.70
2019-04-29T04:13:44.843Z,5.70
2019-04-29T04:16:15.347Z,5.60
2019-04-29T04:18:44.234Z,5.60
2019-04-29T04:21:13.032Z,5.60
2019-04-29T04:23:41.923Z,5.60
2019-04-29T04:26:10.678Z,5.60
2019-04-29T04:28:39.492Z,5.60
2019-04-29T04:31:08.297Z,5.50
2019-04-29T04:33:37.197Z,5.50
2019-04-29T04:36:06.085Z,5.50
2019-04-29T04:38:34.871Z,5.70
2019-04-29T04:41:08.086Z,5.80
2019-04-29T04:43:37.045Z,5.80
2019-04-29T04:46:05.967Z,5.80
2019-04-29T04:48:34.850Z,5.90
2019-04-29T04:51:03.676Z,6.00
2019-04-29T04:53:32.572Z,6.10
2019-04-29T04:56:02.134Z,6.20
2019-04-29T04:58:31.029Z,6.30
2019-04-29T05:01:00.000Z,6.30
2019-04-29T05:03:28.751Z,6.40
2019-04-29T05:05:57.584Z,6.40
2019-04-29T05:08:26.404Z,6.50
2019-04-29T05:10:55.267Z,6.50
2019-04-29T05:13:28.140Z,6.60
2019-04-29T05:15:54.586Z,6.70
2019-04-29T05:18:23.547Z,6.80
2019-04-29T05:20:52.331Z,6.90
2019-04-29T05:23:21.250Z,7.00
2019-04-29T05:25:50.104Z,7.10
2019-04-29T05:28:18.880Z,7.10
2019-04-29T05:30:47.706Z,7.20
2019-04-29T05:33:16.539Z,7.30
2019-04-29T05:35:56.838Z,8.40
2019-04-29T05:38:27.361Z,9.70
2019-04-29T05:40:56.974Z,11.20
2019-04-29T05:43:42.846Z,12.30
2019-04-29T05:46:21.672Z,12.90
2019-04-29T05:48:50.101Z,13.60
2019-04-29T05:51:38.710Z,12.80
2019-04-29T05:54:18.213Z,12.60
2019-04-29T05:56:47.155Z,12.00
2019-04-29T05:59:15.923Z,12.00
2019-04-29T06:01:47.146Z,12.30
2019-04-29T06:04:16.384Z,12.50
2019-04-29T06:06:45.740Z,12.50
2019-04-29T06:09:16.596Z,12.40
2019-04-29T06:11:44.431Z,12.60
2019-04-29T06:14:13.299Z,13.00
2019-04-29T06:16:42.180Z,12.90
2019-04-29T06:19:10.986Z,12.50
2019-04-29T06:21:39.782Z,12.10
2019-04-29T06:24:08.648Z,11.80
2019-04-29T06:26:37.548Z,11.60
2019-04-29T06:29:06.341Z,11.60
2019-04-29T06:31:35.162Z,11.40
2019-04-29T06:34:05.256Z,11.30
2019-04-29T06:36:34.483Z,11.30
2019-04-29T06:39:04.843Z,11.30
2019-04-29T06:41:33.704Z,11.30
2019-04-29T06:44:06.737Z,11.20
2019-04-29T06:46:32.952Z,11.20
2019-04-29T06:49:09.991Z,11.20
2019-04-29T06:51:32.198Z,11.30
2019-04-29T06:54:01.066Z,11.20
2019-04-29T06:56:29.949Z,11.20
2019-04-29T06:58:58.831Z,11.10
2019-04-29T07:01:27.640Z,11.10
2019-04-29T07:03:59.801Z,11.20
2019-04-29T07:06:26.893Z,11.20
2019-04-29T07:08:55.718Z,11.30
2019-04-29T07:11:24.521Z,11.40
2019-04-29T07:13:53.496Z,11.30
2019-04-29T07:16:26.871Z,11.50
2019-04-29T07:18:55.315Z,11.60
2019-04-29T07:21:24.145Z,11.60
2019-04-29T07:23:53.027Z,11.60
2019-04-29T07:26:21.818Z,11.70
2019-04-29T07:28:57.308Z,11.70
2019-04-29T07:31:20.700Z,11.70
2019-04-29T07:33:49.492Z,11.80
2019-04-29T07:36:18.602Z,11.90
2019-04-29T07:38:51.693Z,12.00
2019-04-29T07:41:20.771Z,12.00
2019-04-29T07:43:49.891Z,12.00
2019-04-29T07:46:29.217Z,12.00
2019-04-29T07:49:01.650Z,12.00
2019-04-29T07:51:28.434Z,12.20
2019-04-29T07:53:57.254Z,12.20
2019-04-29T07:56:26.047Z,12.20
2019-04-29T07:58:58.816Z,12.20
2019-04-29T08:01:26.407Z,12.30
2019-04-29T08:03:55.363Z,12.10
2019-04-29T08:06:24.208Z,12.30
2019-04-29T08:08:55.084Z,12.40
2019-04-29T08:11:23.493Z,12.40
2019-04-29T08:13:53.833Z,12.40
2019-04-29T08:16:23.949Z,12.40
2019-04-29T08:18:53.622Z,12.50
2019-04-29T08:21:23.361Z,12.30
2019-04-29T08:23:52.172Z,12.40
2019-04-29T08:26:21.116Z,12.40
2019-04-29T08:28:52.442Z,12.40
2019-04-29T08:31:23.238Z,12.40
2019-04-29T08:33:52.305Z,12.50
2019-04-29T08:36:21.245Z,12.70
2019-04-29T08:38:50.041Z,12.60
2019-04-29T08:41:21.560Z,12.50
2019-04-29T08:43:52.403Z,12.40
2019-04-29T08:46:32.555Z,12.50
2019-04-29T08:49:06.091Z,12.50
2019-04-29T08:51:32.012Z,12.50
2019-04-29T08:54:05.126Z,12.40
2019-04-29T08:56:33.934Z,12.40
2019-04-29T08:59:02.807Z,12.40
2019-04-29T09:01:34.111Z,12.40
2019-04-29T09:04:02.103Z,12.40
2019-04-29T09:06:32.568Z,12.40
2019-04-29T09:09:04.939Z,12.30
2019-04-29T09:11:31.932Z,12.30
2019-04-29T09:14:00.789Z,12.40
2019-04-29T09:16:29.542Z,12.50
2019-04-29T09:18:58.403Z,12.40
2019-04-29T09:21:27.249Z,12.40
2019-04-29T09:23:56.100Z,12.40
2019-04-29T09:26:38.522Z,12.40
2019-04-29T09:29:25.316Z,12.20
2019-04-29T09:31:54.108Z,12.30
2019-04-29T09:34:24.630Z,12.30
2019-04-29T09:36:53.474Z,12.30
2019-04-29T09:39:23.338Z,12.20
2019-04-29T09:42:13.037Z,12.10
2019-04-29T09:44:44.903Z,12.00
2019-04-29T09:47:13.507Z,12.00
2019-04-29T09:49:42.431Z,12.10
2019-04-29T09:52:11.243Z,12.00
2019-04-29T09:54:40.164Z,12.20
2019-04-29T09:57:09.112Z,12.00
2019-04-29T09:59:39.531Z,12.20
2019-04-29T10:02:12.833Z,12.20
2019-04-29T10:04:56.393Z,12.00
2019-04-29T10:07:19.466Z,12.00
2019-04-29T10:09:56.980Z,11.80
2019-04-29T10:12:18.849Z,12.00
2019-04-29T10:14:47.921Z,12.00
2019-04-29T10:17:21.264Z,12.20
2019-04-29T10:19:51.749Z,12.20
2019-04-29T10:22:20.648Z,12.20
2019-04-29T10:24:49.515Z,12.00
2019-04-29T10:27:18.308Z,12.20
2019-04-29T10:29:50.704Z,12.20
2019-04-29T10:32:19.161Z,12.10
2019-04-29T10:34:47.981Z,12.10
2019-04-29T10:37:17.018Z,12.10
2019-04-29T10:39:47.426Z,12.10
2019-04-29T10:42:17.831Z,11.80
2019-04-29T10:45:06.978Z,11.80
2019-04-29T10:47:49.857Z,11.70
2019-04-29T10:50:20.238Z,11.80
2019-04-29T10:52:49.110Z,11.70
2019-04-29T10:55:18.184Z,11.60
2019-04-29T10:57:49.846Z,11.50
2019-04-29T11:00:23.409Z,11.50
2019-04-29T11:02:52.458Z,11.50
2019-04-29T11:05:31.781Z,11.60
2019-04-29T11:08:04.150Z,11.60
2019-04-29T11:10:33.013Z,11.60
2019-04-29T11:13:01.851Z,11.60
2019-04-29T11:15:35.239Z,11.50
2019-04-29T11:18:04.308Z,11.30
2019-04-29T11:20:33.347Z,11.40
2019-04-29T11:23:16.719Z,11.40
2019-04-29T11:25:41.738Z,11.40
2019-04-29T11:28:11.976Z,11.30
2019-04-29T11:30:41.225Z,11.30
2019-04-29T11:33:11.954Z,11.30
2019-04-29T11:35:44.759Z,11.30
2019-04-29T11:38:15.280Z,11.50
2019-04-29T11:40:44.552Z,11.50
2019-04-29T11:43:15.575Z,11.60
2019-04-29T11:45:45.267Z,11.60
2019-04-29T11:48:14.212Z,11.60
2019-04-29T11:50:49.984Z,11.60
2019-04-29T11:53:18.189Z,11.60
2019-04-29T11:55:47.007Z,11.70
2019-04-29T11:58:20.099Z,11.80
2019-04-29T12:01:08.478Z,12.00
2019-04-29T12:03:39.448Z,12.00
2019-04-29T12:06:16.191Z,11.90
2019-04-29T12:08:43.348Z,12.00
2019-04-29T12:11:12.772Z,12.00
2019-04-29T12:13:46.345Z,11.90
2019-04-29T12:16:19.753Z,11.90
2019-04-29T12:21:31.082Z,11.90
2019-04-29T12:24:00.768Z,12.00
2019-04-29T12:26:30.128Z,12.00
2019-04-29T12:28:59.169Z,11.90
2019-04-29T12:31:32.846Z,11.80
2019-04-29T12:34:03.276Z,11.90
2019-04-29T12:36:36.697Z,11.80
2019-04-29T12:39:12.837Z,11.80
2019-04-29T12:41:55.580Z,11.80
2019-04-29T12:44:44.469Z,11.80
2019-04-29T12:47:26.283Z,11.60
2019-04-29T12:49:48.176Z,11.70
2019-04-29T12:52:17.398Z,11.70
2019-04-29T12:54:47.747Z,11.70
2019-04-29T12:57:18.792Z,11.80
2019-04-29T12:59:47.458Z,11.70
2019-04-29T13:02:34.164Z,11.80
2019-04-29T13:05:04.895Z,11.70
2019-04-29T13:07:37.062Z,11.70
2019-04-29T13:10:15.271Z,11.80
2019-04-29T13:12:44.682Z,11.80
2019-04-29T13:15:24.973Z,11.80
2019-04-29T13:18:03.644Z,11.80
2019-04-29T13:20:28.748Z,11.70
2019-04-29T13:23:01.078Z,11.70
2019-04-29T13:25:27.579Z,11.70
2019-04-29T13:28:03.734Z,11.70
2019-04-29T13:30:27.011Z,11.80
2019-04-29T13:32:56.043Z,11.80
2019-04-29T13:35:25.162Z,11.80
2019-04-29T13:37:54.189Z,11.80
2019-04-29T13:40:23.114Z,11.90
2019-04-29T13:42:52.218Z,11.90
2019-04-29T13:45:26.448Z,12.00
2019-04-29T13:48:13.673Z,11.90
2019-04-29T13:50:49.830Z,11.90
2019-04-29T13:53:19.065Z,11.90
2019-04-29T13:55:50.010Z,12.00
2019-04-29T13:58:22.277Z,11.90
2019-04-29T14:01:02.818Z,11.90
2019-04-29T14:03:33.353Z,12.00
2019-04-29T14:06:04.361Z,12.00
2019-04-29T14:08:33.273Z,11.90
2019-04-29T14:11:02.129Z,12.00
2019-04-29T14:13:31.047Z,11.90
2019-04-29T14:16:00.898Z,11.90
2019-04-29T14:18:30.055Z,11.80
2019-04-29T14:20:59.032Z,11.90
2019-04-29T14:23:28.003Z,11.90
2019-04-29T14:25:56.970Z,12.00
2019-04-29T14:28:26.018Z,12.00
2019-04-29T14:30:55.882Z,12.10
2019-04-29T14:33:26.861Z,11.90
2019-04-29T14:35:59.738Z,11.90
2019-04-29T14:38:28.659Z,11.90
2019-04-29T14:40:57.529Z,11.90
2019-04-29T14:43:44.860Z,12.00
2019-04-29T14:46:27.315Z,11.80
2019-04-29T14:48:59.510Z,11.80
2019-04-29T14:51:36.331Z,11.80
2019-04-29T14:54:01.336Z,11.90
2019-04-29T14:56:29.251Z,11.80
2019-04-29T14:59:06.632Z,11.80
2019-04-29T15:01:30.376Z,11.90
2019-04-29T15:04:17.303Z,11.80
2019-04-29T15:06:35.429Z,11.90
2019-04-29T15:09:05.850Z,11.90
2019-04-29T15:11:36.858Z,11.80
2019-04-29T15:14:25.392Z,11.80
2019-04-29T15:17:05.049Z,11.80
2019-04-29T15:19:48.941Z,11.90
2019-04-29T15:22:17.334Z,11.90
2019-04-29T15:24:46.456Z,11.90
2019-04-29T15:27:15.901Z,11.90
2019-04-29T15:29:45.373Z,11.80
2019-04-29T15:32:17.784Z,11.90
2019-04-29T15:34:48.030Z,11.90
2019-04-29T15:37:15.412Z,11.90
2019-04-29T15:39:46.173Z,11.80
2019-04-29T15:42:15.082Z,11.80
2019-04-29T15:44:44.388Z,11.80
2019-04-29T15:47:13.418Z,11.80
2019-04-29T15:49:42.535Z,11.80
2019-04-29T15:52:11.523Z,11.80
2019-04-29T15:54:40.526Z,11.70
2019-04-29T15:57:14.873Z,11.70
2019-04-29T15:59:48.717Z,11.70
2019-04-29T16:02:11.750Z,11.70
2019-04-29T16:04:42.313Z,11.60
2019-04-29T16:07:17.626Z,11.60
2019-04-29T16:09:57.625Z,11.60
2019-04-29T16:12:28.957Z,11.60
2019-04-29T16:14:57.964Z,11.60
2019-04-29T16:17:26.961Z,11.40
2019-04-29T16:19:56.104Z,11.40
2019-04-29T16:22:24.927Z,11.50
2019-04-29T16:24:59.270Z,11.50
2019-04-29T16:27:24.402Z,11.50
2019-04-29T16:29:54.251Z,11.50
2019-04-29T16:32:27.858Z,11.50
2019-04-29T16:34:56.734Z,11.50
2019-04-29T16:37:31.941Z,11.40
2019-04-29T16:42:28.433Z,11.40
2019-04-29T16:44:57.317Z,11.40
2019-04-29T16:47:26.412Z,11.40
2019-04-29T16:49:57.539Z,11.40
2019-04-29T16:52:26.350Z,11.30
2019-04-29T16:54:59.083Z,11.30
2019-04-29T16:57:25.743Z,11.20
2019-04-29T16:59:54.763Z,11.20
2019-04-29T17:02:24.239Z,11.20
2019-04-29T17:04:53.230Z,11.20
2019-04-29T17:07:22.236Z,11.10
2019-04-29T17:10:04.555Z,11.20
2019-04-29T17:12:38.263Z,11.20
2019-04-29T17:15:23.845Z,11.10
2019-04-29T17:17:38.193Z,11.20
2019-04-29T17:20:07.476Z,11.20
2019-04-29T17:22:43.230Z,11.10
2019-04-29T17:25:08.022Z,11.10
2019-04-29T17:27:41.942Z,11.10
2019-04-29T17:30:11.129Z,11.00
2019-04-29T17:32:46.830Z,11.00
2019-04-29T17:35:13.541Z,11.00
2019-04-29T17:35:15.894Z,11.40
2019-04-29T17:37:43.830Z,10.90
2019-04-29T17:40:14.167Z,11.00
2019-04-29T17:42:44.790Z,11.00
2019-04-29T17:45:27.030Z,10.90
2019-04-29T17:48:02.642Z,10.90
2019-04-29T17:50:46.797Z,10.90
2019-04-29T17:53:17.575Z,10.90
2019-04-29T17:55:48.272Z,10.90
2019-04-29T17:58:31.637Z,10.80
2019-04-29T18:01:08.255Z,10.80
2019-04-29T18:03:47.427Z,10.80
2019-04-29T18:06:24.225Z,10.80
2019-04-29T18:08:51.639Z,10.80
2019-04-29T18:11:22.968Z,10.80
2019-04-29T18:14:06.488Z,10.70
2019-04-29T18:16:39.584Z,10.70
2019-04-29T18:19:26.405Z,10.70
2019-04-29T18:22:07.362Z,10.70
2019-04-29T18:24:51.296Z,10.70
2019-04-29T18:27:26.315Z,10.60
2019-04-29T18:29:58.929Z,10.70
2019-04-29T18:32:42.313Z,10.70
2019-04-29T18:35:10.474Z,10.60
2019-04-29T18:37:45.608Z,10.60
2019-04-29T18:40:18.069Z,10.70
2019-04-29T18:42:50.024Z,10.70
2019-04-29T18:45:20.641Z,10.60
2019-04-29T18:47:52.982Z,10.70
2019-04-29T18:50:21.909Z,10.60
2019-04-29T18:52:53.949Z,10.70
2019-04-29T18:55:23.045Z,10.70
2019-04-29T18:57:54.567Z,10.70
2019-04-29T19:00:25.370Z,10.70
2019-04-29T19:03:00.984Z,10.70
2019-04-29T19:05:45.396Z,10.60
2019-04-29T19:08:23.034Z,10.70
2019-04-29T19:10:50.991Z,10.60
2019-04-29T19:13:19.423Z,10.70
2019-04-29T19:16:09.093Z,10.60
2019-04-29T19:18:31.252Z,10.60
2019-04-29T19:21:08.935Z,10.60
2019-04-29T19:23:38.681Z,10.60
2019-04-29T19:26:13.902Z,10.60
2019-04-29T19:28:46.802Z,10.60
2019-04-29T19:31:25.787Z,10.60
2019-04-29T19:33:55.070Z,10.60
2019-04-29T19:36:25.362Z,10.60
2019-04-29T19:38:55.094Z,10.60
2019-04-29T19:41:27.617Z,10.60
2019-04-29T19:43:57.276Z,10.60
2019-04-29T19:49:16.043Z,10.50
2019-04-29T19:51:47.355Z,10.50
2019-04-29T19:54:23.725Z,10.60
2019-04-29T19:56:47.496Z,10.60
2019-04-29T19:59:17.930Z,10.50
2019-04-29T20:01:51.359Z,10.50
2019-04-29T20:04:32.499Z,10.50
2019-04-29T20:07:06.449Z,10.50
2019-04-29T20:09:33.677Z,10.50
2019-04-29T20:12:10.434Z,10.50
2019-04-29T20:14:36.975Z,10.50
2019-04-29T20:17:26.136Z,10.50
2019-04-29T20:20:06.196Z,10.50
2019-04-29T20:22:37.023Z,10.50
2019-04-29T20:25:08.189Z,10.40
2019-04-29T20:27:38.978Z,10.50
2019-04-29T20:30:16.392Z,10.50
2019-04-29T20:32:41.242Z,10.50
2019-04-29T20:35:11.745Z,10.50
2019-04-29T20:37:43.356Z,10.50
2019-04-29T20:40:15.952Z,10.40
2019-04-29T20:42:47.306Z,10.40
2019-04-29T20:45:35.483Z,10.40
2019-04-29T20:48:06.503Z,10.30
2019-04-29T20:50:35.818Z,10.30
2019-04-29T20:53:15.879Z,10.30
2019-04-29T20:55:46.098Z,10.30
2019-04-29T20:58:15.759Z,10.30
2019-04-29T21:00:45.587Z,10.20
2019-04-29T21:03:27.292Z,10.30
2019-04-29T21:05:50.296Z,10.20
2019-04-29T21:08:19.789Z,10.20
2019-04-29T21:10:50.943Z,10.20
2019-04-29T21:13:27.557Z,10.20
2019-04-29T21:16:15.157Z,10.20
2019-04-29T21:18:52.624Z,10.20
2019-04-29T21:21:15.942Z,10.20
2019-04-29T21:23:45.726Z,10.20
2019-04-29T21:26:15.994Z,10.30
2019-04-29T21:28:47.009Z,10.30
2019-04-29T21:31:18.558Z,10.20
2019-04-29T21:33:46.320Z,10.20
2019-04-29T21:36:19.800Z,10.20
2019-04-29T21:39:01.394Z,10.20
2019-04-29T21:41:35.902Z,10.20
2019-04-29T21:44:06.466Z,10.20
2019-04-29T21:46:37.322Z,10.20
2019-04-29T21:49:11.443Z,10.20
2019-04-29T21:51:36.531Z,10.20
2019-04-29T21:54:24.831Z,10.20
2019-04-29T21:56:55.569Z,10.20
2019-04-29T21:59:25.848Z,10.10
2019-04-29T22:01:56.210Z,10.10
2019-04-29T22:04:26.224Z,10.20
2019-04-29T22:06:55.695Z,10.20
2019-04-29T22:09:35.571Z,10.20
2019-04-29T22:11:56.068Z,10.20
2019-04-29T22:14:26.657Z,10.10
2019-04-29T22:16:57.063Z,10.10
2019-04-29T22:19:27.907Z,10.10
2019-04-29T22:21:59.793Z,10.00
2019-04-29T22:24:27.658Z,10.00
2019-04-29T22:27:04.042Z,10.00
2019-04-29T22:29:26.826Z,10.00
2019-04-29T22:31:56.282Z,10.00
2019-04-29T22:34:25.624Z,10.00
2019-04-29T22:36:58.378Z,10.00
2019-04-29T22:39:26.735Z,10.10
2019-04-29T22:42:09.591Z,10.10
2019-04-29T22:44:38.903Z,10.10
2019-04-29T22:47:07.971Z,10.10
2019-04-29T22:49:36.963Z,10.10
2019-04-29T22:52:05.957Z,10.10
2019-04-29T22:54:37.785Z,10.10
2019-04-29T22:57:06.060Z,10.00
2019-04-29T22:59:35.454Z,10.00
2019-04-29T23:02:05.812Z,10.00
2019-04-29T23:04:35.179Z,9.90
2019-04-29T23:07:04.337Z,9.90
2019-04-29T23:09:33.439Z,9.90
2019-04-29T23:12:02.411Z,9.90
2019-04-29T23:14:31.329Z,9.90
2019-04-29T23:17:00.531Z,9.90
2019-04-29T23:19:29.756Z,9.90
2019-04-29T23:22:15.373Z,9.90
2019-04-29T23:24:51.337Z,10.00
2019-04-29T23:27:21.819Z,9.80
2019-04-29T23:29:50.632Z,9.80
2019-04-29T23:32:19.656Z,9.80
2019-04-29T23:34:49.092Z,9.80
2019-04-29T23:37:19.462Z,9.80
2019-04-29T23:39:48.748Z,9.70
2019-04-29T23:42:17.886Z,9.60
2019-04-29T23:44:46.851Z,9.60
2019-04-29T23:47:17.745Z,9.70
2019-04-29T23:49:46.785Z,9.70
2019-04-29T23:52:17.986Z,9.70
2019-04-29T23:54:48.486Z,9.70
2019-04-29T23:57:23.750Z,9.70
